Time;durP1;ratioP1;P1;durP2;ratioP2;P2;SDS_P1;SDS_P2;PMS_P1;PMS_P2;Temp;Humidity;BMP_temperature;BMP_pressure;BME280_temperature;BME280_humidity;BME280_pressure;Samples;Min_cycle;Max_cycle;Signal;HPM_P1;HPM_P2
2022/04/15 00:01:32;;;;;;;67.43;37.27;;;8.70;99.90;;;;;;5062176;28;38636;-75
2022/04/15 00:03:58;;;;;;;72.03;38.23;;;8.70;99.90;;;;;;5068683;28;38212;-75
2022/04/15 00:06:24;;;;;;;61.53;35.60;;;8.60;99.90;;;;;;5081493;28;38362;-75
2022/04/15 00:08:54;;;;;;;56.30;33.57;;;8.60;99.90;;;;;;5059003;28;38745;-75
2022/04/15 00:11:20;;;;;;;59.43;36.33;;;8.60;99.90;;;;;;5058012;28;39271;-75
2022/04/15 00:13:47;;;;;;;64.40;36.37;;;8.50;99.90;;;;;;5058844;28;40099;-75
2022/04/15 00:16:16;;;;;;;66.43;36.30;;;8.50;99.90;;;;;;5063581;28;38696;-75
2022/04/15 00:18:43;;;;;;;61.47;36.00;;;8.50;99.90;;;;;;5067454;28;38494;-75
2022/04/15 00:21:10;;;;;;;72.83;38.50;;;8.50;99.90;;;;;;5062136;28;38645;-75
2022/04/15 00:23:36;;;;;;;76.33;39.27;;;8.40;99.90;;;;;;5051056;28;38563;-76
2022/04/15 00:26:12;;;;;;;70.57;37.10;;;8.50;99.90;;;;;;5063170;28;38192;-75
2022/04/15 00:28:38;;;;;;;69.37;37.30;;;8.40;99.90;;;;;;5057677;28;40075;-75
2022/04/15 00:31:04;;;;;;;80.00;42.47;;;8.50;99.90;;;;;;5068232;28;37346;-75
2022/04/15 00:33:30;;;;;;;67.43;38.70;;;8.50;99.90;;;;;;5056519;28;39193;-76
2022/04/15 00:35:56;;;;;;;67.53;37.93;;;8.50;99.90;;;;;;5058195;28;38256;-76
2022/04/15 00:38:22;;;;;;;63.97;35.67;;;8.40;99.90;;;;;;5049949;28;39156;-75
2022/04/15 00:40:50;;;;;;;69.37;38.00;;;8.30;99.90;;;;;;5062432;28;38728;-76
2022/04/15 00:43:18;;;;;;;68.80;38.17;;;8.30;99.90;;;;;;5066452;28;37955;-76
2022/04/15 00:45:45;;;;;;;78.20;40.13;;;8.20;99.90;;;;;;5062841;28;37390;-76
2022/04/15 00:48:11;;;;;;;68.53;37.20;;;8.20;99.90;;;;;;5062007;28;38566;-75
2022/04/15 00:50:39;;;;;;;69.57;37.50;;;8.20;99.90;;;;;;5067829;28;38622;-75
2022/04/15 00:53:10;;;;;;;63.50;36.93;;;8.20;99.90;;;;;;5064560;28;38416;-75
2022/04/15 00:55:38;;;;;;;62.87;36.07;;;8.20;99.90;;;;;;5058188;28;38352;-76
2022/04/15 00:58:06;;;;;;;62.87;36.37;;;8.10;99.90;;;;;;5064778;28;39005;-75
2022/04/15 01:00:37;;;;;;;63.90;35.80;;;8.00;99.90;;;;;;5065608;28;38241;-75
2022/04/15 01:03:09;;;;;;;68.33;36.63;;;8.00;99.90;;;;;;5060901;28;39859;-75
2022/04/15 01:05:35;;;;;;;60.70;33.90;;;8.00;99.90;;;;;;5065941;28;37479;-76
2022/04/15 01:08:03;;;;;;;59.37;34.60;;;8.00;99.90;;;;;;5050962;28;39175;-74
2022/04/15 01:10:33;;;;;;;56.60;34.03;;;8.00;99.90;;;;;;5064451;28;40358;-76
2022/04/15 01:13:05;;;;;;;55.73;32.90;;;8.00;99.90;;;;;;5078925;28;38985;-77
2022/04/15 01:15:33;;;;;;;63.47;34.97;;;8.00;99.90;;;;;;5052089;28;48255;-77
2022/04/15 01:18:02;;;;;;;62.70;35.90;;;8.00;99.90;;;;;;5064950;27;38834;-76
2022/04/15 01:20:30;;;;;;;54.13;31.50;;;8.00;99.90;;;;;;5054994;28;47586;-76
2022/04/15 01:23:04;;;;;;;55.67;34.70;;;8.10;99.90;;;;;;5073733;28;38794;-76
2022/04/15 01:25:30;;;;;;;57.63;33.80;;;8.10;99.90;;;;;;5061064;28;47683;-76
2022/04/15 01:27:57;;;;;;;60.17;36.53;;;8.10;99.90;;;;;;5064264;28;38976;-76
2022/04/15 01:30:26;;;;;;;70.87;36.93;;;8.10;99.90;;;;;;5069413;28;38463;-76
2022/04/15 01:32:53;;;;;;;68.10;38.33;;;8.10;99.90;;;;;;5041314;28;38870;-76
2022/04/15 01:35:20;;;;;;;65.63;36.70;;;8.10;99.90;;;;;;5068343;28;37049;-76
2022/04/15 01:37:47;;;;;;;67.57;38.40;;;8.10;99.90;;;;;;5049967;28;40636;-76
2022/04/15 01:40:15;;;;;;;68.77;37.23;;;8.00;99.90;;;;;;5057335;28;39306;-76
2022/04/15 01:42:43;;;;;;;70.30;39.57;;;8.00;99.90;;;;;;5058684;28;38948;-76
2022/04/15 01:45:13;;;;;;;60.73;35.87;;;8.00;99.90;;;;;;5057541;28;36702;-76
2022/04/15 01:47:39;;;;;;;60.73;38.53;;;7.90;99.90;;;;;;5058258;28;38640;-76
2022/04/15 01:50:06;;;;;;;72.97;39.27;;;7.90;99.90;;;;;;5048218;28;38482;-75
2022/04/15 01:52:32;;;;;;;66.53;39.80;;;7.90;99.90;;;;;;5056034;28;39162;-76
2022/04/15 01:54:58;;;;;;;73.77;43.53;;;8.00;99.90;;;;;;5056064;28;36727;-76
2022/04/15 01:57:25;;;;;;;81.83;45.10;;;8.00;99.90;;;;;;5054703;28;38626;-76
2022/04/15 01:59:51;;;;;;;87.00;47.23;;;8.00;99.90;;;;;;5048587;28;37996;-75
2022/04/15 02:02:17;;;;;;;92.70;47.93;;;7.90;99.90;;;;;;5055508;28;38619;-76
2022/04/15 02:04:43;;;;;;;83.43;47.53;;;7.90;99.90;;;;;;5065725;28;37462;-76
2022/04/15 02:07:12;;;;;;;77.73;44.97;;;7.80;99.90;;;;;;5048480;28;39950;-76
2022/04/15 02:09:38;;;;;;;84.10;46.07;;;7.80;99.90;;;;;;5065955;28;39403;-76
2022/04/15 02:12:05;;;;;;;82.50;44.27;;;7.70;99.90;;;;;;5068763;28;39457;-76
2022/04/15 02:14:31;;;;;;;82.77;48.90;;;7.60;99.90;;;;;;5062770;28;37898;-76
2022/04/15 02:17:03;;;;;;;83.20;46.30;;;7.60;99.90;;;;;;5050542;28;38690;-76
2022/04/15 02:19:31;;;;;;;84.03;46.15;;;7.60;99.90;;;;;;5036804;28;47219;-76
2022/04/15 02:22:00;;;;;;;82.23;47.20;;;7.50;99.90;;;;;;5071132;28;37680;-76
2022/04/15 02:24:27;;;;;;;92.90;46.30;;;7.40;99.90;;;;;;5054102;28;38168;-76
2022/04/15 02:26:53;;;;;;;96.63;49.53;;;7.40;99.90;;;;;;5057433;28;38906;-76
2022/04/15 02:29:22;;;;;;;83.87;47.73;;;7.40;99.90;;;;;;5055854;28;37586;-76
2022/04/15 02:31:48;;;;;;;78.43;42.90;;;7.40;99.90;;;;;;5061215;28;38427;-76
2022/04/15 02:34:14;;;;;;;76.87;44.70;;;7.40;99.90;;;;;;5068680;28;37497;-76
2022/04/15 02:36:40;;;;;;;76.60;42.87;;;7.40;99.90;;;;;;5069236;28;37647;-77
2022/04/15 02:39:10;;;;;;;73.23;44.73;;;7.40;99.90;;;;;;5063115;28;37519;-75
2022/04/15 02:41:38;;;;;;;75.17;44.60;;;7.30;99.90;;;;;;5081243;28;37774;-76
2022/04/15 02:44:10;;;;;;;72.30;43.27;;;7.30;99.90;;;;;;5056748;28;37920;-75
2022/04/15 02:46:36;;;;;;;80.33;45.63;;;7.20;99.90;;;;;;5060306;28;39829;-76
2022/04/15 02:49:03;;;;;;;65.47;40.43;;;7.20;99.90;;;;;;5057043;28;37563;-77
2022/04/15 02:51:30;;;;;;;88.30;46.80;;;7.20;99.90;;;;;;5053476;28;37868;-76
2022/04/15 02:53:59;;;;;;;80.47;44.83;;;7.10;99.90;;;;;;5073805;27;38963;-77
2022/04/15 02:56:25;;;;;;;78.33;44.73;;;7.00;99.90;;;;;;5066473;28;38993;-78
2022/04/15 02:58:51;;;;;;;77.80;45.17;;;7.00;99.90;;;;;;5067178;28;38574;-78
2022/04/15 03:01:18;;;;;;;80.70;44.80;;;7.00;99.90;;;;;;5065031;28;38048;-78
2022/04/15 03:03:46;;;;;;;79.77;44.03;;;6.90;99.90;;;;;;5065450;28;37304;-77
2022/04/15 03:06:12;;;;;;;71.50;43.93;;;6.90;99.90;;;;;;5058075;28;37630;-79
2022/04/15 03:08:38;;;;;;;73.30;43.33;;;6.90;99.90;;;;;;5060491;28;37387;-77
2022/04/15 03:11:06;;;;;;;75.13;42.87;;;6.80;99.90;;;;;;5063143;28;36915;-77
2022/04/15 03:13:32;;;;;;;79.37;44.70;;;6.80;99.90;;;;;;5060570;27;38370;-77
2022/04/15 03:16:03;;;;;;;73.53;41.10;;;6.90;99.90;;;;;;5051613;28;40014;-77
2022/04/15 03:18:32;;;;;;;82.37;46.50;;;7.00;99.90;;;;;;5064246;28;49073;-78
2022/04/15 03:20:59;;;;;;;85.90;47.57;;;7.20;99.90;;;;;;5066910;28;38355;-78
2022/04/15 03:23:31;;;;;;;89.13;48.70;;;7.30;99.90;;;;;;5057676;28;37630;-78
2022/04/15 03:25:57;;;;;;;79.47;45.00;;;7.40;99.90;;;;;;5058250;28;37853;-78
2022/04/15 03:28:23;;;;;;;94.67;51.27;;;7.50;99.90;;;;;;5071731;28;37162;-77
2022/04/15 03:30:50;;;;;;;91.70;49.77;;;7.70;99.90;;;;;;5069231;28;37555;-78
2022/04/15 03:33:17;;;;;;;87.07;49.37;;;7.80;99.90;;;;;;5050651;28;37960;-78
2022/04/15 03:35:43;;;;;;;85.97;49.73;;;7.90;99.90;;;;;;5072772;27;38572;-75
2022/04/15 03:38:09;;;;;;;115.40;57.07;;;8.00;99.90;;;;;;5066357;28;38440;-75
2022/04/15 03:40:35;;;;;;;106.70;55.37;;;8.10;99.90;;;;;;5063768;28;38898;-75
2022/04/15 03:43:03;;;;;;;123.63;60.17;;;8.20;99.90;;;;;;5069165;28;39132;-75
2022/04/15 03:45:30;;;;;;;129.37;61.07;;;8.30;99.90;;;;;;5066629;28;47118;-75
2022/04/15 03:47:56;;;;;;;116.57;59.30;;;8.30;99.90;;;;;;5067251;28;39938;-76
2022/04/15 03:50:25;;;;;;;113.60;59.67;;;8.40;99.90;;;;;;5064144;28;38376;-76
2022/04/15 03:52:51;;;;;;;110.67;58.20;;;8.40;99.90;;;;;;5065208;28;38787;-76
2022/04/15 03:55:25;;;;;;;179.87;73.60;;;8.50;99.90;;;;;;5069864;28;40904;-75
2022/04/15 03:57:54;;;;;;;150.97;69.67;;;8.40;99.90;;;;;;5069880;28;39181;-76
2022/04/15 04:00:25;;;;;;;168.07;69.10;;;8.40;99.90;;;;;;5068462;28;37278;-75
2022/04/15 04:02:57;;;;;;;107.13;56.63;;;8.40;99.90;;;;;;5066065;28;36291;-76
2022/04/15 04:05:23;;;;;;;134.23;65.13;;;8.40;99.90;;;;;;5066532;28;38851;-76
2022/04/15 04:07:51;;;;;;;110.33;56.87;;;8.40;99.90;;;;;;5062346;28;37454;-76
2022/04/15 04:10:20;;;;;;;110.60;56.43;;;8.40;99.90;;;;;;5067862;28;38704;-76
2022/04/15 04:12:48;;;;;;;125.80;57.40;;;8.30;99.90;;;;;;5062363;28;36413;-76
2022/04/15 04:15:14;;;;;;;132.20;58.43;;;8.30;99.90;;;;;;5075575;28;38598;-76
2022/04/15 04:17:41;;;;;;;122.37;57.77;;;8.30;99.90;;;;;;5066475;28;37594;-76
2022/04/15 04:20:09;;;;;;;104.17;53.70;;;8.30;99.90;;;;;;5061260;28;38539;-76
2022/04/15 04:22:36;;;;;;;104.07;54.93;;;8.30;99.90;;;;;;5067314;28;37245;-76
2022/04/15 04:25:04;;;;;;;92.07;50.23;;;8.30;99.90;;;;;;5069721;28;39057;-76
2022/04/15 04:27:30;;;;;;;109.03;54.43;;;8.40;99.90;;;;;;5085318;27;37271;-76
2022/04/15 04:29:56;;;;;;;110.23;53.30;;;8.40;99.90;;;;;;5052261;28;37331;-76
2022/04/15 04:32:22;;;;;;;119.90;53.83;;;8.40;99.90;;;;;;5059880;28;37468;-76
2022/04/15 04:34:51;;;;;;;116.83;55.77;;;8.40;99.90;;;;;;5055138;28;37693;-76
2022/04/15 04:37:17;;;;;;;99.53;51.93;;;8.40;99.90;;;;;;5063844;28;38259;-76
2022/04/15 04:39:43;;;;;;;117.93;53.67;;;8.50;99.90;;;;;;5068884;28;38637;-76
2022/04/15 04:42:11;;;;;;;104.97;52.23;;;8.40;99.90;;;;;;5069653;27;20044;-76
2022/04/15 04:44:38;;;;;;;114.30;51.77;;;8.50;99.90;;;;;;5066040;28;38909;-76
2022/04/15 04:47:06;;;;;;;86.40;45.37;;;8.50;99.90;;;;;;5059719;27;38581;-76
2022/04/15 04:49:33;;;;;;;116.77;52.50;;;8.50;99.90;;;;;;5065831;28;38285;-76
2022/04/15 04:51:59;;;;;;;111.47;49.67;;;8.50;99.90;;;;;;5067741;28;37789;-76
2022/04/15 04:54:25;;;;;;;125.80;53.67;;;8.50;99.90;;;;;;5054764;27;40523;-76
2022/04/15 04:56:57;;;;;;;88.93;44.20;;;8.60;99.90;;;;;;5046359;28;38273;-76
2022/04/15 04:59:28;;;;;;;92.70;47.85;;;8.60;99.90;;;;;;5060051;27;38873;-77
2022/04/15 05:01:54;;;;;;;137.43;55.63;;;8.70;99.90;;;;;;5058715;28;38282;-76
2022/04/15 05:04:24;;;;;;;109.33;51.60;;;8.70;99.90;;;;;;5060898;28;40417;-76
2022/04/15 05:06:50;;;;;;;100.70;47.47;;;8.70;99.90;;;;;;5049488;28;36790;-76
2022/04/15 05:09:16;;;;;;;102.80;47.77;;;8.80;99.90;;;;;;5064457;28;37963;-76
2022/04/15 05:11:42;;;;;;;103.03;49.23;;;8.80;99.90;;;;;;5067530;28;37734;-76
2022/04/15 05:14:08;;;;;;;90.33;46.33;;;8.80;99.90;;;;;;5049889;28;39367;-76
2022/04/15 05:16:34;;;;;;;107.23;48.07;;;8.80;99.90;;;;;;5064335;28;38601;-76
2022/04/15 05:19:01;;;;;;;79.53;44.77;;;8.80;99.90;;;;;;5068457;28;37695;-76
2022/04/15 05:21:27;;;;;;;100.50;48.87;;;8.80;99.90;;;;;;5080789;28;46444;-76
2022/04/15 05:23:53;;;;;;;87.90;46.60;;;8.80;99.90;;;;;;5066678;28;39019;-76
2022/04/15 05:26:20;;;;;;;80.97;44.60;;;8.80;99.90;;;;;;5067806;28;38433;-76
2022/04/15 05:28:46;;;;;;;79.37;44.30;;;8.80;99.90;;;;;;5079909;28;39364;-76
2022/04/15 05:31:12;;;;;;;73.97;43.17;;;8.80;99.90;;;;;;5057754;28;37282;-76
2022/04/15 05:33:39;;;;;;;75.13;41.67;;;8.90;99.90;;;;;;5071804;28;38951;-77
2022/04/15 05:36:08;;;;;;;78.00;42.00;;;8.80;99.90;;;;;;5074315;28;39497;-76
2022/04/15 05:38:36;;;;;;;63.60;39.80;;;8.90;99.90;;;;;;5082678;28;39194;-76
2022/04/15 05:41:02;;;;;;;59.07;36.10;;;8.90;99.90;;;;;;5080962;28;36122;-76
2022/04/15 05:43:28;;;;;;;62.57;37.87;;;8.90;99.90;;;;;;5081265;27;39621;-76
2022/04/15 05:45:55;;;;;;;63.58;37.90;;;8.90;99.90;;;;;;5086607;28;38264;-76
2022/04/15 05:48:21;;;;;;;76.87;42.37;;;8.90;99.90;;;;;;5065725;28;38847;-77
2022/04/15 05:50:47;;;;;;;74.83;43.73;;;8.90;99.90;;;;;;5071397;28;37313;-77
2022/04/15 05:53:14;;;;;;;68.10;44.03;;;8.90;99.90;;;;;;5063956;28;38261;-76
2022/04/15 05:55:40;;;;;;;72.60;44.33;;;9.00;99.90;;;;;;5064060;28;37227;-77
2022/04/15 05:58:08;;;;;;;70.87;43.83;;;9.00;99.90;;;;;;5063928;28;39469;-77
2022/04/15 06:00:36;;;;;;;83.67;47.83;;;8.90;99.90;;;;;;5070098;28;38524;-77
2022/04/15 06:03:02;;;;;;;76.03;45.75;;;9.10;99.90;;;;;;5069555;28;39881;-76
2022/04/15 06:05:30;;;;;;;70.53;43.33;;;9.00;99.90;;;;;;5066679;28;38570;-76
2022/04/15 06:07:56;;;;;;;78.90;43.33;;;9.00;99.90;;;;;;5084598;28;38527;-78
2022/04/15 06:10:22;;;;;;;74.83;43.70;;;9.00;99.90;;;;;;5066450;28;37777;-76
2022/04/15 06:12:57;;;;;;;66.00;41.07;;;9.00;99.90;;;;;;5071136;28;40496;-76
2022/04/15 06:15:28;;;;;;;58.60;37.50;;;9.00;99.90;;;;;;5074382;28;38578;-76
2022/04/15 06:17:54;;;;;;;55.50;34.80;;;9.00;99.90;;;;;;5063834;28;38091;-76
2022/04/15 06:20:21;;;;;;;51.47;34.60;;;9.00;99.90;;;;;;5065563;28;39011;-77
2022/04/15 06:22:47;;;;;;;49.97;32.70;;;9.00;99.90;;;;;;5058677;27;38512;-77
2022/04/15 06:25:37;;;;;;;41.37;28.43;;;9.20;99.90;;;;;;5036321;28;38760;-76
2022/04/15 06:32:12;;;;;;;35.97;24.97;;;9.30;99.90;;;;;;5026798;28;37523;-76
2022/04/15 06:35:00;;;;;;;38.17;26.85;;;9.30;99.90;;;;;;5009176;28;38373;-77
2022/04/15 06:38:06;;;;;;;36.87;27.00;;;9.40;99.90;;;;;;5013964;28;37295;-76
2022/04/15 06:40:33;;;;;;;34.77;24.53;;;9.50;99.90;;;;;;5002959;28;47671;-76
2022/04/15 06:42:59;;;;;;;35.97;25.48;;;9.40;99.90;;;;;;5049616;28;37833;-76
2022/04/15 06:45:25;;;;;;;33.33;24.27;;;9.50;99.90;;;;;;5056982;28;37441;-77
2022/04/15 06:47:51;;;;;;;35.33;26.13;;;9.40;99.90;;;;;;5047031;28;38390;-77
2022/04/15 06:50:20;;;;;;;34.85;26.92;;;9.60;99.90;;;;;;5046838;28;37329;-77
2022/04/15 06:52:46;;;;;;;37.17;28.40;;;9.70;99.90;;;;;;5042026;28;36289;-76
2022/04/15 06:55:12;;;;;;;37.60;27.20;;;9.70;99.90;;;;;;5046537;28;37572;-76
2022/04/15 06:57:38;;;;;;;30.08;25.30;;;9.60;99.90;;;;;;5049949;28;37331;-76
2022/04/15 07:00:05;;;;;;;29.60;23.42;;;9.70;99.90;;;;;;5049144;28;37230;-77
2022/04/15 07:02:34;;;;;;;35.53;21.73;;;9.70;99.90;;;;;;5030979;28;36396;-77
2022/04/15 07:05:00;;;;;;;32.35;19.25;;;9.80;99.90;;;;;;5045804;28;38856;-77
2022/04/15 07:07:26;;;;;;;23.75;17.90;;;9.80;99.90;;;;;;5070451;28;39664;-77
2022/04/15 07:09:52;;;;;;;20.83;16.50;;;9.80;99.90;;;;;;5047615;28;38481;-77
2022/04/15 07:12:19;;;;;;;22.80;15.80;;;9.70;99.90;;;;;;5040554;28;37348;-77
2022/04/15 07:14:45;;;;;;;25.00;16.50;;;9.70;99.90;;;;;;5053865;28;37459;-76
2022/04/15 07:17:11;;;;;;;21.88;15.60;;;9.70;99.90;;;;;;5040505;28;38123;-78
2022/04/15 07:19:38;;;;;;;18.67;15.10;;;9.70;99.90;;;;;;5045885;28;37812;-77
2022/04/15 07:22:05;;;;;;;18.85;14.35;;;9.90;99.90;;;;;;5048550;28;36143;-78
2022/04/15 07:24:33;;;;;;;21.33;16.30;;;10.00;99.90;;;;;;5030392;28;37928;-78
2022/04/15 07:26:59;;;;;;;22.10;15.38;;;10.10;99.90;;;;;;5039973;28;39323;-78
2022/04/15 07:29:26;;;;;;;18.15;14.45;;;10.20;99.90;;;;;;5049277;28;39745;-78
2022/04/15 07:31:53;;;;;;;19.38;14.73;;;10.20;99.90;;;;;;5047191;28;39186;-77
2022/04/15 07:34:19;;;;;;;17.95;15.20;;;10.40;99.90;;;;;;5042605;28;38305;-78
2022/04/15 07:36:53;;;;;;;21.65;15.55;;;10.50;99.90;;;;;;5061545;28;38560;-78
2022/04/15 07:39:20;;;;;;;23.48;17.75;;;10.40;99.90;;;;;;5067423;28;38284;-78
2022/04/15 07:41:47;;;;;;;25.63;17.05;;;10.50;99.90;;;;;;5065456;28;37237;-78
2022/04/15 07:44:14;;;;;;;20.02;15.48;;;10.60;99.90;;;;;;5067592;27;40582;-78
2022/04/15 07:46:43;;;;;;;18.95;15.27;;;10.70;99.90;;;;;;5067089;28;39047;-79
2022/04/15 07:49:09;;;;;;;21.90;16.23;;;10.90;99.90;;;;;;5080796;28;38096;-78
2022/04/15 07:51:36;;;;;;;17.88;13.95;;;11.00;99.90;;;;;;5065990;28;37672;-78
2022/04/15 07:54:04;;;;;;;18.33;13.98;;;11.00;99.90;;;;;;5065904;28;39839;-78
2022/04/15 07:56:32;;;;;;;15.30;13.02;;;10.90;99.90;;;;;;5074129;28;39787;-78
2022/04/15 07:59:02;;;;;;;15.00;11.90;;;10.90;99.90;;;;;;5068251;28;38804;-78
2022/04/15 08:01:28;;;;;;;18.52;12.73;;;11.00;99.90;;;;;;5073072;28;47959;-78
2022/04/15 08:03:55;;;;;;;17.05;12.05;;;11.00;99.90;;;;;;5069665;28;38842;-78
2022/04/15 08:06:23;;;;;;;14.05;10.57;;;11.30;99.90;;;;;;5054478;28;38742;-78
2022/04/15 08:08:52;;;;;;;16.42;10.13;;;11.40;99.90;;;;;;5051213;28;37706;-78
2022/04/15 08:11:18;;;;;;;14.98;11.48;;;11.30;99.90;;;;;;5083809;28;38307;-78
2022/04/15 08:13:44;;;;;;;11.57;10.30;;;11.20;99.90;;;;;;5071976;28;41671;-78
2022/04/15 08:16:11;;;;;;;12.90;10.02;;;11.10;99.90;;;;;;5070302;28;38633;-78
2022/04/15 08:18:38;;;;;;;13.57;9.70;;;11.00;99.90;;;;;;5077543;27;38286;-81
2022/04/15 08:21:04;;;;;;;12.38;8.70;;;11.30;99.90;;;;;;5072779;28;37099;-78
2022/04/15 08:23:30;;;;;;;11.90;8.38;;;11.40;99.90;;;;;;5062238;28;38810;-79
2022/04/15 08:25:56;;;;;;;14.07;8.35;;;11.60;99.90;;;;;;5053794;28;37495;-81
2022/04/15 08:28:22;;;;;;;10.45;8.93;;;11.70;99.90;;;;;;5070932;28;38223;-81
2022/04/15 08:30:48;;;;;;;12.68;9.23;;;11.80;99.90;;;;;;5070443;28;36308;-82
2022/04/15 08:33:14;;;;;;;11.90;8.45;;;11.80;99.90;;;;;;5076992;28;39486;-81
2022/04/15 08:35:40;;;;;;;15.05;9.00;;;12.10;99.90;;;;;;5066805;28;39057;-81
2022/04/15 08:38:07;;;;;;;9.32;8.00;;;12.20;99.90;;;;;;5062102;28;38930;-80
2022/04/15 08:40:35;;;;;;;12.27;7.97;;;12.40;99.90;;;;;;5056615;28;37497;-80
2022/04/15 08:43:05;;;;;;;11.65;8.05;;;12.50;99.90;;;;;;5064621;28;38653;-80
2022/04/15 08:45:31;;;;;;;10.65;6.55;;;12.80;99.90;;;;;;5044378;28;37228;-81
2022/04/15 08:48:01;;;;;;;11.35;6.32;;;12.80;99.90;;;;;;5050451;28;36943;-80
2022/04/15 08:50:29;;;;;;;8.07;5.18;;;12.70;99.90;;;;;;5065775;28;48357;-81
2022/04/15 08:52:57;;;;;;;9.40;5.57;;;12.60;99.90;;;;;;5066978;28;39260;-81
2022/04/15 08:55:25;;;;;;;8.63;6.10;;;12.80;99.90;;;;;;5052437;28;39375;-80
2022/04/15 08:57:52;;;;;;;6.65;4.95;;;13.00;99.90;;;;;;5051698;28;38159;-81
2022/04/15 09:00:23;;;;;;;8.55;4.90;;;13.20;99.90;;;;;;5071758;28;37602;-80
2022/04/15 09:02:53;;;;;;;7.68;5.05;;;13.20;99.90;;;;;;5049635;28;37575;-80
2022/04/15 09:05:25;;;;;;;8.70;4.80;;;13.50;99.90;;;;;;5048469;28;37573;-81
2022/04/15 09:08:04;;;;;;;7.18;4.20;;;13.40;99.90;;;;;;5043281;27;39086;-80
2022/04/15 09:10:33;;;;;;;7.53;4.32;;;13.20;99.90;;;;;;5065409;28;49069;-81
2022/04/15 09:13:00;;;;;;;7.90;4.63;;;12.90;99.90;;;;;;5064615;28;38424;-80
2022/04/15 09:15:26;;;;;;;6.68;4.18;;;12.80;99.90;;;;;;5064032;28;38331;-80
2022/04/15 09:17:54;;;;;;;7.75;3.88;;;13.00;99.90;;;;;;5038534;28;36505;-82
2022/04/15 09:20:22;;;;;;;7.18;4.13;;;13.50;99.90;;;;;;5050148;28;38743;-80
2022/04/15 09:22:54;;;;;;;10.10;4.82;;;13.60;99.90;;;;;;5066803;28;38943;-80
2022/04/15 09:25:26;;;;;;;7.30;3.95;;;13.60;99.90;;;;;;5044859;28;38906;-81
2022/04/15 09:27:57;;;;;;;5.55;3.60;;;13.70;99.90;;;;;;5075175;28;37020;-81
2022/04/15 09:30:36;;;;;;;6.88;3.80;;;13.90;99.90;;;;;;5075016;28;36135;-81
2022/04/15 09:33:03;;;;;;;4.78;3.20;;;13.80;99.90;;;;;;5067181;28;38585;-80
2022/04/15 09:35:30;;;;;;;7.38;3.40;;;13.70;99.90;;;;;;5064045;28;39276;-80
2022/04/15 09:38:02;;;;;;;7.07;4.07;;;13.60;99.90;;;;;;5058646;27;39133;-80
2022/04/15 09:40:35;;;;;;;7.75;3.00;;;13.40;99.90;;;;;;5039489;28;48597;-80
2022/04/15 09:43:03;;;;;;;8.63;3.00;;;13.40;99.90;;;;;;5058419;28;39825;-80
2022/04/15 09:45:33;;;;;;;9.30;3.67;;;13.80;99.90;;;;;;5065155;28;48616;-81
2022/04/15 09:48:07;;;;;;;7.70;3.22;;;13.80;99.90;;;;;;5071089;28;38992;-81
2022/04/15 09:50:36;;;;;;;4.78;2.63;;;13.80;99.90;;;;;;5061739;28;47270;-80
2022/04/15 09:53:23;;;;;;;8.00;3.13;;;13.70;99.90;;;;;;5062700;28;39845;-80
2022/04/15 09:55:51;;;;;;;6.22;3.03;;;13.30;99.90;;;;;;5066624;28;48742;-79
2022/04/15 09:58:19;;;;;;;4.68;2.83;;;13.40;99.90;;;;;;5070904;28;38066;-80
2022/04/15 10:00:48;;;;;;;6.93;2.88;;;13.40;99.90;;;;;;5074894;28;37775;-79
2022/04/15 10:03:22;;;;;;;6.93;3.47;;;13.80;99.90;;;;;;5061000;28;39739;-80
2022/04/15 10:05:54;;;;;;;5.47;2.83;;;14.30;99.90;;;;;;5044756;28;36856;-79
2022/04/15 10:08:22;;;;;;;7.45;3.08;;;14.60;99.90;;;;;;5071781;27;38762;-79
2022/04/15 10:10:49;;;;;;;5.82;3.03;;;14.40;99.90;;;;;;5063907;28;37075;-80
2022/04/15 10:13:15;;;;;;;11.02;3.33;;;14.50;99.90;;;;;;5071950;28;38417;-80
2022/04/15 10:15:42;;;;;;;7.50;3.22;;;14.80;99.90;;;;;;5066224;28;37507;-80
2022/04/15 10:18:08;;;;;;;5.93;3.03;;;14.70;99.90;;;;;;5063053;28;38063;-80
2022/04/15 10:20:37;;;;;;;8.88;3.08;;;14.30;99.90;;;;;;5057441;28;37982;-80
2022/04/15 10:23:05;;;;;;;6.28;2.83;;;14.00;99.90;;;;;;5068572;28;38993;-80
2022/04/15 10:25:33;;;;;;;3.85;2.60;;;14.20;99.90;;;;;;5064738;28;39083;-80
2022/04/15 10:28:15;;;;;;;5.03;3.05;;;14.60;99.90;;;;;;5060114;28;38097;-78
2022/04/15 10:31:07;;;;;;;5.55;2.83;;;15.20;99.90;;;;;;5084605;28;47853;-78
2022/04/15 10:33:33;;;;;;;5.93;2.53;;;15.00;99.90;;;;;;5047582;28;48762;-78
2022/04/15 10:36:09;;;;;;;8.60;3.17;;;15.10;99.90;;;;;;5066670;28;38490;-78
2022/04/15 10:38:35;;;;;;;5.65;3.08;;;14.90;99.90;;;;;;5070172;28;47216;-77
2022/04/15 10:41:15;;;;;;;9.93;3.35;;;15.00;99.90;;;;;;5064853;28;36705;-77
2022/04/15 10:43:58;;;;;;;6.55;2.92;;;15.00;99.90;;;;;;5059637;28;38859;-80
2022/04/15 10:46:31;;;;;;;3.03;2.38;;;15.40;99.90;;;;;;5079913;28;38694;-80
2022/04/15 10:48:58;;;;;;;6.47;2.35;;;15.70;99.90;;;;;;5081481;28;37776;-80
2022/04/15 10:51:34;;;;;;;4.68;2.75;;;15.70;99.90;;;;;;5081362;27;37907;-80
2022/04/15 10:54:45;;;;;;;5.30;2.72;;;16.30;99.90;;;;;;5070272;28;40867;-80
2022/04/15 10:57:19;;;;;;;4.32;2.53;;;16.90;99.90;;;;;;5078147;28;47702;-80
2022/04/15 11:02:45;;;;;;;3.90;2.58;;;17.10;99.90;;;;;;5081975;28;49308;-79
2022/04/15 11:05:32;;;;;;;3.45;1.98;;;16.40;99.90;;;;;;5078595;28;39873;-81
2022/04/15 11:08:06;;;;;;;7.32;2.80;;;17.10;99.90;;;;;;5064445;28;38662;-80
2022/04/15 11:11:07;;;;;;;6.95;2.53;;;17.90;99.90;;;;;;5046821;28;47437;-78
2022/04/15 11:13:39;;;;;;;4.70;2.33;;;18.10;99.90;;;;;;5067379;28;49253;-79
2022/04/15 11:16:19;;;;;;;;;;;17.70;99.90;;;;;;5066515;28;37821;-82
2022/04/15 11:18:58;;;;;;;6.15;2.90;;;17.70;99.90;;;;;;5073498;28;37392;-81
2022/04/15 11:21:39;;;;;;;4.30;2.63;;;17.70;99.90;;;;;;5081940;28;38200;-81
2022/04/15 11:24:12;;;;;;;4.35;2.53;;;17.20;99.90;;;;;;5072951;28;37468;-78
2022/04/15 11:26:42;;;;;;;5.32;2.80;;;17.60;99.90;;;;;;5069929;27;38766;-81
2022/04/15 11:29:11;;;;;;;5.93;2.42;;;18.20;99.90;;;;;;5064300;28;38592;-80
2022/04/15 11:31:38;;;;;;;5.07;2.80;;;18.80;99.90;;;;;;5072957;27;38021;-81
2022/04/15 11:34:15;;;;;;;5.90;2.75;;;18.90;99.90;;;;;;5062091;28;37691;-80
2022/04/15 11:36:47;;;;;;;5.35;2.78;;;18.10;99.90;;;;;;5064193;27;39759;-81
2022/04/15 11:39:18;;;;;;;5.73;2.37;;;17.20;99.90;;;;;;5064890;28;40189;-79
2022/04/15 11:41:46;;;;;;;6.35;2.20;;;17.50;99.90;;;;;;5064090;28;37014;-81
2022/04/15 11:44:13;;;;;;;8.10;2.83;;;18.00;99.90;;;;;;5061055;28;37459;-79
2022/04/15 11:46:45;;;;;;;4.18;3.30;;;18.00;99.90;;;;;;5050336;28;37916;-80
2022/04/15 11:49:18;;;;;;;6.03;3.30;;;18.10;99.90;;;;;;5082762;28;38554;-81
2022/04/15 11:51:56;;;;;;;4.13;2.60;;;18.30;99.90;;;;;;5075666;28;37385;-81
2022/04/15 11:54:36;;;;;;;5.90;3.08;;;18.80;99.90;;;;;;5063253;28;37820;-81
2022/04/15 11:57:04;;;;;;;4.32;2.53;;;19.00;99.90;;;;;;5071822;28;38969;-80
2022/04/15 11:59:42;;;;;;;6.20;3.03;;;19.30;99.90;;;;;;5065607;28;38969;-79
2022/04/15 12:02:09;;;;;;;6.00;2.83;;;19.40;99.90;;;;;;5064836;28;37908;-80
2022/04/15 12:04:35;;;;;;;5.43;3.30;;;19.00;99.90;;;;;;5073441;28;36278;-81
2022/04/15 12:07:02;;;;;;;6.25;3.30;;;18.20;99.90;;;;;;5072430;28;39354;-79
2022/04/15 12:09:28;;;;;;;6.95;3.55;;;17.60;99.90;;;;;;5071360;28;37824;-81
2022/04/15 12:11:54;;;;;;;5.38;3.97;;;17.50;99.90;;;;;;5066082;28;37036;-80
2022/04/15 12:14:20;;;;;;;8.30;3.85;;;17.40;99.90;;;;;;5068208;28;38190;-82
2022/04/15 12:16:49;;;;;;;5.85;3.78;;;17.40;99.90;;;;;;5070358;28;39150;-82
2022/04/15 12:19:16;;;;;;;4.18;3.53;;;17.90;99.90;;;;;;5082453;28;38112;-81
2022/04/15 12:21:43;;;;;;;4.75;3.60;;;18.20;99.90;;;;;;5071413;28;37978;-80
2022/04/15 12:24:29;;;;;;;5.20;3.10;;;18.60;99.90;;;;;;5072574;28;37906;-81
2022/04/15 12:26:59;;;;;;;3.42;2.70;;;19.20;99.90;;;;;;5048712;28;38763;-80
2022/04/15 12:32:19;;;;;;;4.80;3.22;;;19.90;99.90;;;;;;5079019;27;39416;-80
2022/04/15 12:34:47;;;;;;;4.75;3.83;;;20.00;99.90;;;;;;5066816;28;38589;-79
2022/04/15 12:37:34;;;;;;;5.60;3.72;;;19.60;99.90;;;;;;5039753;28;38117;-80
2022/04/15 12:40:08;;;;;;;6.18;3.75;;;19.60;99.90;;;;;;5039832;28;39144;-81
2022/04/15 12:42:37;;;;;;;4.88;3.47;;;19.60;99.90;;;;;;5045411;28;47004;-80
2022/04/15 12:45:10;;;;;;;4.68;3.85;;;19.90;99.90;;;;;;5049187;28;36518;-79
2022/04/15 12:47:38;;;;;;;6.80;3.83;;;19.50;99.90;;;;;;5049897;28;38622;-80
2022/04/15 12:50:20;;;;;;;9.45;4.05;;;19.80;99.90;;;;;;5052721;28;37206;-80
2022/04/15 12:52:50;;;;;;;7.90;3.70;;;19.70;99.90;;;;;;5044344;28;38082;-79
2022/04/15 12:55:30;;;;;;;3.72;3.13;;;19.70;99.90;;;;;;5057670;28;36839;-79
2022/04/15 12:57:57;;;;;;;6.40;3.63;;;20.20;99.90;;;;;;5047489;28;39080;-79